createdAt,value
2023-02-28T00:01:32.032Z,100111.94
2023-02-28T00:03:59.437Z,100113.03
2023-02-28T00:06:26.726Z,100115.75
2023-02-28T00:08:53.690Z,100121.75
2023-02-28T00:11:22.672Z,100128.34
2023-02-28T00:13:49.572Z,100132.44
2023-02-28T00:16:19.777Z,100126.44
2023-02-28T00:18:48.579Z,100130.25
2023-02-28T00:21:16.814Z,100131.63
2023-02-28T00:23:43.920Z,100113.28
2023-02-28T00:26:11.213Z,100140.66
2023-02-28T00:28:38.805Z,100155.19
2023-02-28T00:31:06.113Z,100150.53
2023-02-28T00:33:33.419Z,100140.41
2023-02-28T00:36:18.838Z,100134.09
2023-02-28T00:38:46.078Z,100139.06
2023-02-28T00:41:13.117Z,100139.03
2023-02-28T00:43:41.349Z,100138.50
2023-02-28T00:46:08.877Z,100143.16
2023-02-28T00:48:36.422Z,100144.81
2023-02-28T00:51:04.126Z,100146.47
2023-02-28T00:53:33.478Z,100150.84
2023-02-28T00:56:00.473Z,100154.13
2023-02-28T00:58:27.745Z,100150.84
2023-02-28T01:00:54.916Z,100158.78
2023-02-28T01:03:22.889Z,100149.19
2023-02-28T01:05:49.968Z,100156.31
2023-02-28T01:08:17.520Z,100153.56
2023-02-28T01:10:44.415Z,100146.72
2023-02-28T01:13:14.112Z,100149.19
2023-02-28T01:15:54.107Z,100137.97
2023-02-28T01:18:21.993Z,100140.16
2023-02-28T01:20:50.016Z,100118.53
2023-02-28T01:23:17.108Z,100095.81
2023-02-28T01:25:44.064Z,100104.28
2023-02-28T01:28:11.239Z,100103.50
2023-02-28T01:30:38.114Z,100112.50
2023-02-28T01:33:06.932Z,100087.63
2023-02-28T01:35:35.348Z,100103.75
2023-02-28T01:38:20.499Z,100114.69
2023-02-28T01:40:48.549Z,100115.28
2023-02-28T01:43:51.358Z,100119.63
2023-02-28T01:46:18.384Z,100112.50
2023-02-28T01:48:54.452Z,100127.03
2023-02-28T01:51:28.174Z,100130.03
2023-02-28T01:54:04.264Z,100133.31
2023-02-28T01:56:35.197Z,100132.22
2023-02-28T01:59:03.276Z,100133.84
2023-02-28T02:01:31.804Z,100120.44
2023-02-28T02:04:03.540Z,100136.03
2023-02-28T02:06:44.907Z,100134.94
2023-02-28T02:09:12.168Z,100143.72
2023-02-28T02:11:41.667Z,100136.59
2023-02-28T02:14:27.401Z,100129.75
2023-02-28T02:17:19.227Z,100136.06
2023-02-28T02:20:14.382Z,100140.97
2023-02-28T02:23:09.211Z,100136.63
2023-02-28T02:25:55.475Z,100151.94
2023-02-28T02:28:56.005Z,100154.41
2023-02-28T02:31:41.868Z,100118.03
2023-02-28T02:34:40.165Z,100156.88
2023-02-28T02:37:10.466Z,100159.06
2023-02-28T02:39:51.739Z,100167.53
2023-02-28T02:42:28.959Z,100171.13
2023-02-28T02:45:12.775Z,100168.66
2023-02-28T02:47:41.179Z,100170.00
2023-02-28T02:50:15.082Z,100178.78
2023-02-28T02:52:50.239Z,100163.97
2023-02-28T02:55:19.698Z,100167.28
2023-02-28T02:57:52.998Z,100164.00
2023-02-28T03:00:24.742Z,100174.66
2023-02-28T03:02:55.877Z,100162.38
2023-02-28T03:05:47.001Z,100154.94
2023-02-28T03:08:17.421Z,100179.88
2023-02-28T03:10:49.393Z,100175.75
2023-02-28T03:13:39.481Z,100173.03
2023-02-28T03:16:35.059Z,100184.25
2023-02-28T03:19:46.637Z,100184.53
2023-02-28T03:22:22.614Z,100180.97
2023-02-28T03:24:59.025Z,100183.97
2023-02-28T03:27:36.610Z,100176.59
2023-02-28T03:30:28.693Z,100186.19
2023-02-28T03:33:13.881Z,100161.25
2023-02-28T03:35:55.571Z,100173.03
2023-02-28T03:38:38.599Z,100180.41
2023-02-28T03:41:14.711Z,100184.25
2023-02-28T03:43:47.491Z,100190.81
2023-02-28T03:46:19.226Z,100194.13
2023-02-28T03:48:52.634Z,100192.75
2023-02-28T03:51:23.901Z,100184.28
2023-02-28T03:54:20.320Z,100194.94
2023-02-28T03:57:01.906Z,100189.47
2023-02-28T03:59:28.721Z,100190.28
2023-02-28T04:01:56.340Z,100203.72
2023-02-28T04:04:23.750Z,100196.59
2023-02-28T04:06:52.624Z,100197.16
2023-02-28T04:09:20.059Z,100206.72
2023-02-28T04:11:53.020Z,100204.00
2023-02-28T04:14:20.017Z,100203.44
2023-02-28T04:16:46.946Z,100187.53
2023-02-28T04:19:15.451Z,100194.13
2023-02-28T04:21:45.087Z,100199.88
2023-02-28T04:24:17.968Z,100203.16
2023-02-28T04:26:47.482Z,100213.81
2023-02-28T04:29:19.488Z,100199.06
2023-02-28T04:31:46.492Z,100220.41
2023-02-28T04:34:13.305Z,100199.88
2023-02-28T04:36:40.571Z,100205.63
2023-02-28T04:39:07.677Z,100210.81
2023-02-28T04:41:35.389Z,100220.97
2023-02-28T04:44:02.460Z,100205.59
2023-02-28T04:46:29.314Z,100220.94
2023-02-28T04:48:56.240Z,100228.03
2023-02-28T04:51:23.888Z,100218.47
2023-02-28T04:53:50.674Z,100224.22
2023-02-28T04:56:19.241Z,100220.69
2023-02-28T04:58:46.573Z,100230.00
2023-02-28T05:01:23.877Z,100229.16
2023-02-28T05:03:52.230Z,100229.72
2023-02-28T05:06:21.300Z,100226.44
2023-02-28T05:08:48.683Z,100227.78
2023-02-28T05:11:25.749Z,100222.88
2023-02-28T05:13:53.847Z,100234.63
2023-02-28T05:16:20.964Z,100234.63
2023-02-28T05:18:48.481Z,100234.03
2023-02-28T05:21:34.985Z,100249.94
2023-02-28T05:24:05.909Z,100246.09
2023-02-28T05:26:36.769Z,100211.59
2023-02-28T05:29:04.084Z,100243.06
2023-02-28T05:31:31.076Z,100255.97
2023-02-28T05:33:58.402Z,100247.44
2023-02-28T05:36:25.610Z,100252.97
2023-02-28T05:38:53.441Z,100233.22
2023-02-28T05:41:21.309Z,100246.06
2023-02-28T05:43:49.290Z,100241.16
2023-02-28T05:46:16.863Z,100234.84
2023-02-28T05:48:46.674Z,100246.88
2023-02-28T05:51:13.621Z,100245.78
2023-02-28T05:53:40.448Z,100258.69
2023-02-28T05:56:07.892Z,100260.34
2023-02-28T05:58:35.721Z,100254.06
2023-02-28T06:01:22.128Z,100262.31
2023-02-28T06:03:49.267Z,100238.44
2023-02-28T06:06:16.097Z,100257.59
2023-02-28T06:08:44.485Z,100256.00
2023-02-28T06:11:11.290Z,100254.03
2023-02-28T06:13:38.144Z,100259.78
2023-02-28T06:16:05.652Z,100251.03
2023-02-28T06:18:32.943Z,100259.25
2023-02-28T06:20:59.677Z,100266.91
2023-02-28T06:23:26.802Z,100261.13
2023-02-28T06:25:54.310Z,100251.53
2023-02-28T06:28:21.317Z,100252.13
2023-02-28T06:30:48.083Z,100270.53
2023-02-28T06:33:14.965Z,100263.09
2023-02-28T06:35:45.552Z,100285.53
2023-02-28T06:38:12.976Z,100269.06
2023-02-28T06:40:39.775Z,100274.00
2023-02-28T06:43:07.676Z,100280.00
2023-02-28T06:45:34.516Z,100273.47
2023-02-28T06:48:01.502Z,100280.63
2023-02-28T06:50:30.501Z,100270.75
2023-02-28T06:52:57.666Z,100286.59
2023-02-28T06:55:24.537Z,100276.78
2023-02-28T06:57:51.768Z,100279.25
2023-02-28T07:00:18.720Z,100279.28
2023-02-28T07:02:45.725Z,100290.25
2023-02-28T07:05:12.554Z,100287.75
2023-02-28T07:07:41.750Z,100289.41
2023-02-28T07:10:09.325Z,100287.75
2023-02-28T07:12:37.435Z,100286.41
2023-02-28T07:15:06.128Z,100294.63
2023-02-28T07:17:33.297Z,100294.63
2023-02-28T07:20:00.214Z,100296.00
2023-02-28T07:22:27.566Z,100289.69
2023-02-28T07:24:54.368Z,100285.84
2023-02-28T07:27:24.862Z,100282.31
2023-02-28T07:29:52.292Z,100267.75
2023-02-28T07:32:19.798Z,100286.66
2023-02-28T07:34:46.845Z,100286.66
2023-02-28T07:37:13.772Z,100290.50
2023-02-28T07:39:43.235Z,100282.56
2023-02-28T07:42:12.839Z,100284.47
2023-02-28T07:44:41.668Z,100283.38
2023-02-28T07:47:10.073Z,100279.56
2023-02-28T07:49:37.780Z,100293.28
2023-02-28T07:52:08.027Z,100266.69
2023-02-28T07:54:35.136Z,100299.25
2023-02-28T07:57:01.968Z,100281.75
2023-02-28T07:59:31.899Z,100293.81
2023-02-28T08:02:00.424Z,100291.09
2023-02-28T08:04:27.986Z,100284.25
2023-02-28T08:06:55.121Z,100294.94
2023-02-28T08:09:21.942Z,100308.06
2023-02-28T08:11:48.902Z,100307.53
2023-02-28T08:14:15.703Z,100298.22
2023-02-28T08:16:44.047Z,100304.81
2023-02-28T08:19:10.843Z,100312.75
2023-02-28T08:21:37.747Z,100317.16
2023-02-28T08:24:04.722Z,100296.31
2023-02-28T08:26:31.986Z,100319.34
2023-02-28T08:29:00.436Z,100308.66
2023-02-28T08:31:28.924Z,100298.22
2023-02-28T08:33:58.086Z,100290.25
2023-02-28T08:36:25.528Z,100313.03
2023-02-28T08:38:52.439Z,100304.00
2023-02-28T08:41:19.245Z,100300.69
2023-02-28T08:43:46.168Z,100315.78
2023-02-28T08:46:15.122Z,100324.00
2023-02-28T08:48:42.600Z,100313.56
2023-02-28T08:51:19.772Z,100307.53
2023-02-28T08:53:46.998Z,100309.19
2023-02-28T08:56:15.610Z,100299.03
2023-02-28T08:58:42.617Z,100277.38
2023-02-28T09:01:12.017Z,100305.59
2023-02-28T09:03:39.387Z,100304.22
2023-02-28T09:06:06.532Z,100311.38
2023-02-28T09:08:33.558Z,100303.72
2023-02-28T09:11:02.372Z,100300.94
2023-02-28T09:13:31.151Z,100315.78
2023-02-28T09:16:02.655Z,100293.25
2023-02-28T09:18:30.835Z,100303.16
2023-02-28T09:20:58.920Z,100302.84
2023-02-28T09:23:26.252Z,100260.13
2023-02-28T09:25:55.426Z,100315.44
2023-02-28T09:28:23.257Z,100306.16
2023-02-28T09:30:52.443Z,100311.34
2023-02-28T09:33:24.190Z,100312.47
2023-02-28T09:35:52.513Z,100308.63
2023-02-28T09:38:19.418Z,100302.59
2023-02-28T09:40:57.302Z,100306.41
2023-02-28T09:43:27.969Z,100300.38
2023-02-28T09:46:29.088Z,100314.66
2023-02-28T09:48:58.238Z,100298.22
2023-02-28T09:51:39.170Z,100311.94
2023-02-28T09:54:06.194Z,100319.59
2023-02-28T09:56:40.855Z,100310.84
2023-02-28T09:59:11.018Z,100310.84
2023-02-28T10:01:54.544Z,100319.63
2023-02-28T10:04:30.747Z,100320.72
2023-02-28T10:06:59.056Z,100318.50
2023-02-28T10:09:31.594Z,100294.41
2023-02-28T10:12:04.910Z,100313.31
2023-02-28T10:14:35.104Z,100293.00
2023-02-28T10:17:16.236Z,100307.53
2023-02-28T10:20:12.542Z,100295.47
2023-02-28T10:23:08.909Z,100285.00
2023-02-28T10:25:38.071Z,100297.34
2023-02-28T10:28:13.725Z,100280.84
2023-02-28T10:30:48.523Z,100274.16
2023-02-28T10:33:23.572Z,100274.22
2023-02-28T10:35:51.026Z,100280.00
2023-02-28T10:38:24.884Z,100276.22
2023-02-28T10:40:52.701Z,100272.34
2023-02-28T10:43:22.263Z,100268.50
2023-02-28T10:46:01.062Z,100281.66
2023-02-28T10:48:35.673Z,100263.31
2023-02-28T10:51:05.083Z,100267.25
2023-02-28T10:53:44.822Z,100252.75
2023-02-28T10:56:24.909Z,100263.72
2023-02-28T10:59:08.921Z,100250.22
2023-02-28T11:01:39.903Z,100235.00
2023-02-28T11:04:20.823Z,100258.03
2023-02-28T11:06:49.463Z,100254.78
2023-02-28T11:09:21.896Z,100251.53
2023-02-28T11:11:50.783Z,100242.09
2023-02-28T11:14:32.434Z,100241.63
2023-02-28T11:17:14.245Z,100257.50
2023-02-28T11:19:46.700Z,100230.66
2023-02-28T11:22:24.524Z,100251.34
2023-02-28T11:24:54.668Z,100230.31
2023-02-28T11:27:34.926Z,100234.03
2023-02-28T11:30:01.982Z,100231.28
2023-02-28T11:32:31.577Z,100217.59
2023-02-28T11:35:18.841Z,100214.88
2023-02-28T11:37:46.935Z,100215.84
2023-02-28T11:40:25.639Z,100225.94
2023-02-28T11:43:10.405Z,100232.28
2023-02-28T11:45:50.222Z,100234.84
2023-02-28T11:48:26.241Z,100226.22
2023-02-28T11:50:59.303Z,100227.84
2023-02-28T11:54:04.230Z,100226.19
2023-02-28T11:56:42.327Z,100221.13
2023-02-28T11:59:33.596Z,100225.94
2023-02-28T12:02:25.229Z,100219.53
2023-02-28T12:05:17.401Z,100192.91
2023-02-28T12:08:00.502Z,100230.72
2023-02-28T12:10:31.132Z,100225.22
2023-02-28T12:13:14.497Z,100165.00
2023-02-28T12:15:41.384Z,100233.97
2023-02-28T12:18:26.145Z,100243.84
2023-02-28T12:21:38.166Z,100227.97
2023-02-28T12:24:17.045Z,100234.56
2023-02-28T12:26:46.550Z,100230.47
2023-02-28T12:29:35.941Z,100233.44
2023-02-28T12:32:21.470Z,100236.16
2023-02-28T12:35:17.460Z,100231.53
2023-02-28T12:37:51.192Z,100229.63
2023-02-28T12:40:24.976Z,100229.38
2023-02-28T12:43:08.165Z,100228.00
2023-02-28T12:45:38.786Z,100229.94
2023-02-28T12:48:09.581Z,100223.69
2023-02-28T12:50:38.143Z,100220.66
2023-02-28T12:53:16.108Z,100216.47
2023-02-28T12:56:07.647Z,100214.84
2023-02-28T12:58:43.991Z,100207.16
2023-02-28T13:01:44.047Z,100206.59
2023-02-28T13:04:45.033Z,100217.03
2023-02-28T13:07:19.263Z,100215.44
2023-02-28T13:09:58.581Z,100215.47
2023-02-28T13:12:26.419Z,100193.56
2023-02-28T13:15:12.511Z,100221.75
2023-02-28T13:17:42.589Z,100208.63
2023-02-28T13:20:26.813Z,100222.31
2023-02-28T13:22:56.215Z,100229.44
2023-02-28T13:25:23.100Z,100233.50
2023-02-28T13:27:57.592Z,100231.06
2023-02-28T13:30:56.972Z,100223.66
2023-02-28T13:33:35.048Z,100211.88
2023-02-28T13:36:20.653Z,100225.31
2023-02-28T13:38:53.528Z,100210.25
2023-02-28T13:41:30.259Z,100229.66
2023-02-28T13:44:03.720Z,100221.78
2023-02-28T13:46:32.251Z,100226.97
2023-02-28T13:49:30.218Z,100220.41
2023-02-28T13:52:17.418Z,100219.03
2023-02-28T13:55:00.050Z,100224.53
2023-02-28T13:57:26.853Z,100214.94
2023-02-28T14:00:06.804Z,100218.78
2023-02-28T14:03:16.659Z,100203.44
2023-02-28T14:05:44.403Z,100214.91
2023-02-28T14:08:22.732Z,100213.00
2023-02-28T14:11:10.484Z,100190.84
2023-02-28T14:13:45.783Z,100197.16
2023-02-28T14:16:16.546Z,100201.53
2023-02-28T14:18:59.025Z,100194.66
2023-02-28T14:21:31.474Z,100208.91
2023-02-28T14:24:48.897Z,100197.38
2023-02-28T14:27:37.688Z,100200.94
2023-02-28T14:30:46.488Z,100201.25
2023-02-28T14:33:32.027Z,100200.13
2023-02-28T14:36:11.556Z,100202.84
2023-02-28T14:38:47.926Z,100199.31
2023-02-28T14:41:39.564Z,100212.72
2023-02-28T14:44:15.572Z,100213.81
2023-02-28T14:46:44.035Z,100213.00
2023-02-28T14:49:19.115Z,100207.22
2023-02-28T14:51:48.356Z,100211.06
2023-02-28T14:54:18.141Z,100203.38
2023-02-28T14:56:45.030Z,100204.50
2023-02-28T14:59:28.206Z,100226.94
2023-02-28T15:02:14.838Z,100223.66
2023-02-28T15:04:43.142Z,100225.84
2023-02-28T15:07:10.971Z,100227.78
2023-02-28T15:09:37.994Z,100237.63
2023-02-28T15:12:05.306Z,100242.03
2023-02-28T15:14:33.161Z,100239.00
2023-02-28T15:17:09.906Z,100255.19
2023-02-28T15:19:41.332Z,100243.41
2023-02-28T15:22:19.416Z,100252.97
2023-02-28T15:24:53.159Z,100243.94
2023-02-28T15:27:25.287Z,100226.38
2023-02-28T15:30:06.177Z,100261.44
2023-02-28T15:32:40.995Z,100255.16
2023-02-28T15:35:28.646Z,100256.78
2023-02-28T15:38:01.305Z,100258.16
2023-02-28T15:40:38.022Z,100255.13
2023-02-28T15:43:30.022Z,100246.41
2023-02-28T15:46:10.787Z,100258.97
2023-02-28T15:48:44.485Z,100251.00
2023-02-28T15:51:37.109Z,100243.88
2023-02-28T15:54:13.698Z,100223.28
2023-02-28T15:56:47.278Z,100246.34
2023-02-28T15:59:18.820Z,100218.94
2023-02-28T16:01:46.137Z,100246.06
2023-02-28T16:04:19.229Z,100241.66
2023-02-28T16:06:46.831Z,100233.63
2023-02-28T16:09:16.574Z,100245.44
2023-02-28T16:11:50.373Z,100251.50
2023-02-28T16:14:24.269Z,100253.72
2023-02-28T16:16:58.060Z,100243.06
2023-02-28T16:19:26.007Z,100238.41
2023-02-28T16:21:53.241Z,100248.50
2023-02-28T16:24:20.290Z,100251.00
2023-02-28T16:26:52.710Z,100260.00
2023-02-28T16:29:29.634Z,100245.22
2023-02-28T16:31:57.706Z,100261.41
2023-02-28T16:34:24.972Z,100267.94
2023-02-28T16:36:52.091Z,100270.72
2023-02-28T16:39:21.712Z,100256.47
2023-02-28T16:41:50.483Z,100266.31
2023-02-28T16:44:33.334Z,100261.97
2023-02-28T16:47:04.233Z,100271.47
2023-02-28T16:49:31.278Z,100273.41
2023-02-28T16:51:58.179Z,100269.03
2023-02-28T16:54:25.655Z,100264.94
2023-02-28T16:56:52.531Z,100266.84
2023-02-28T16:59:24.107Z,100274.78
2023-02-28T17:01:52.606Z,100266.84
2023-02-28T17:04:19.482Z,100274.22
2023-02-28T17:06:46.824Z,100265.75
2023-02-28T17:09:26.214Z,100272.63
2023-02-28T17:11:57.905Z,100269.56
2023-02-28T17:14:24.779Z,100265.22
2023-02-28T17:16:51.914Z,100266.31
2023-02-28T17:19:19.397Z,100259.19
2023-02-28T17:21:47.069Z,100274.81
2023-02-28T17:24:28.912Z,100252.88
2023-02-28T17:26:57.057Z,100261.38
2023-02-28T17:29:25.514Z,100259.72
2023-02-28T17:31:53.017Z,100260.81
2023-02-28T17:34:21.281Z,100263.00
2023-02-28T17:36:50.641Z,100258.34
2023-02-28T17:39:25.045Z,100271.25
2023-02-28T17:41:53.509Z,100271.78
2023-02-28T17:44:21.133Z,100276.44
2023-02-28T17:46:50.476Z,100275.06
2023-02-28T17:49:18.558Z,100278.34
2023-02-28T17:51:46.005Z,100267.63
2023-02-28T17:54:13.003Z,100275.63
2023-02-28T17:56:40.644Z,100256.94
2023-02-28T17:59:10.294Z,100277.75
2023-02-28T18:01:37.561Z,100273.13
2023-02-28T18:04:06.672Z,100270.41
2023-02-28T18:06:47.593Z,100277.81
2023-02-28T18:09:17.303Z,100271.50
2023-02-28T18:11:49.278Z,100279.41
2023-02-28T18:14:17.317Z,100284.63
2023-02-28T18:16:45.056Z,100272.56
2023-02-28T18:19:17.581Z,100294.19
2023-02-28T18:21:46.412Z,100292.56
2023-02-28T18:24:13.661Z,100292.50
2023-02-28T18:26:42.097Z,100291.19
2023-02-28T18:29:13.946Z,100294.50
2023-02-28T18:31:41.066Z,100295.00
2023-02-28T18:34:08.049Z,100296.94
2023-02-28T18:36:35.024Z,100266.25
2023-02-28T18:39:01.966Z,100289.84
2023-02-28T18:41:29.266Z,100293.69
2023-02-28T18:43:56.220Z,100303.28
2023-02-28T18:46:23.398Z,100300.19
2023-02-28T18:48:50.211Z,100313.06
2023-02-28T18:51:20.348Z,100312.19
2023-02-28T18:53:47.838Z,100316.53
2023-02-28T18:56:17.510Z,100326.13
2023-02-28T18:58:45.266Z,100319.88
2023-02-28T19:01:27.071Z,100321.16
2023-02-28T19:03:54.208Z,100307.75
2023-02-28T19:06:21.023Z,100308.28
2023-02-28T19:08:54.121Z,100286.66
2023-02-28T19:11:21.846Z,100290.75
2023-02-28T19:13:49.508Z,100308.56
2023-02-28T19:16:19.050Z,100301.41
2023-02-28T19:18:45.980Z,100286.31
2023-02-28T19:21:15.664Z,100309.56
2023-02-28T19:23:43.140Z,100293.16
2023-02-28T19:26:12.975Z,100293.69
2023-02-28T19:28:40.003Z,100272.06
2023-02-28T19:31:16.878Z,100287.91
2023-02-28T19:33:43.964Z,100289.88
2023-02-28T19:36:12.654Z,100283.81
2023-02-28T19:38:40.532Z,100289.59
2023-02-28T19:41:10.662Z,100284.72
2023-02-28T19:43:37.941Z,100257.22
2023-02-28T19:46:05.532Z,100285.47
2023-02-28T19:48:33.016Z,100286.00
2023-02-28T19:51:09.857Z,100281.09
2023-02-28T19:53:38.473Z,100276.19
2023-02-28T19:56:05.840Z,100277.78
2023-02-28T19:58:33.685Z,100271.25
2023-02-28T20:01:08.369Z,100252.91
2023-02-28T20:03:35.465Z,100266.66
2023-02-28T20:06:06.818Z,100268.28
2023-02-28T20:08:34.272Z,100258.41
2023-02-28T20:11:06.801Z,100263.94
2023-02-28T20:13:34.239Z,100257.56
2023-02-28T20:16:02.702Z,100265.25
2023-02-28T20:18:29.840Z,100250.19
2023-02-28T20:20:57.399Z,100258.34
2023-02-28T20:23:25.238Z,100255.72
2023-02-28T20:25:52.074Z,100236.44
2023-02-28T20:28:20.212Z,100246.63
2023-02-28T20:30:50.450Z,100261.69
2023-02-28T20:33:19.963Z,100257.00
2023-02-28T20:35:46.802Z,100252.34
2023-02-28T20:38:13.844Z,100254.00
2023-02-28T20:40:40.916Z,100251.03
2023-02-28T20:43:07.849Z,100252.94
2023-02-28T20:45:35.793Z,100240.09
2023-02-28T20:48:02.971Z,100238.19
2023-02-28T20:50:29.791Z,100245.31
2023-02-28T20:52:56.932Z,100246.19
2023-02-28T20:55:24.157Z,100245.38
2023-02-28T20:57:51.219Z,100235.44
2023-02-28T21:00:20.607Z,100230.72
2023-02-28T21:02:49.566Z,100237.56
2023-02-28T21:05:17.162Z,100229.56
2023-02-28T21:07:43.968Z,100222.44
2023-02-28T21:10:11.676Z,100237.56
2023-02-28T21:12:38.758Z,100239.53
2023-02-28T21:15:06.019Z,100220.09
2023-02-28T21:17:33.071Z,100238.72
2023-02-28T21:19:59.828Z,100242.03
2023-02-28T21:22:26.749Z,100233.00
2023-02-28T21:24:53.579Z,100211.88
2023-02-28T21:27:20.890Z,100224.47
2023-02-28T21:29:47.897Z,100224.56
2023-02-28T21:32:15.346Z,100225.06
2023-02-28T21:34:42.242Z,100219.56
2023-02-28T21:37:10.710Z,100233.75
2023-02-28T21:39:37.528Z,100226.06
2023-02-28T21:42:04.590Z,100208.75
2023-02-28T21:44:34.486Z,100232.13
2023-02-28T21:47:02.168Z,100237.34
2023-02-28T21:49:29.604Z,100237.84
2023-02-28T21:51:57.416Z,100229.03
2023-02-28T21:54:24.629Z,100234.75
2023-02-28T21:56:52.107Z,100240.81
2023-02-28T21:59:19.916Z,100236.97
2023-02-28T22:01:50.907Z,100236.47
2023-02-28T22:04:22.120Z,100228.81
2023-02-28T22:06:52.420Z,100235.03
2023-02-28T22:09:20.066Z,100227.16
2023-02-28T22:11:48.433Z,100213.69
2023-02-28T22:14:15.368Z,100193.66
2023-02-28T22:16:57.859Z,100233.63
2023-02-28T22:19:27.749Z,100232.00
2023-02-28T22:21:55.229Z,100242.28
2023-02-28T22:24:24.595Z,100238.13
2023-02-28T22:26:52.716Z,100228.88
2023-02-28T22:29:19.720Z,100236.09
2023-02-28T22:31:48.134Z,100233.88
2023-02-28T22:34:15.025Z,100237.97
2023-02-28T22:36:42.901Z,100240.19
2023-02-28T22:39:10.473Z,100222.06
2023-02-28T22:41:37.953Z,100230.53
2023-02-28T22:44:05.126Z,100230.88
2023-02-28T22:46:34.435Z,100237.66
2023-02-28T22:49:04.118Z,100237.03
2023-02-28T22:51:31.242Z,100233.50
2023-02-28T22:53:58.852Z,100238.31
2023-02-28T22:56:29.002Z,100236.16
2023-02-28T22:58:58.941Z,100228.09
2023-02-28T23:01:29.671Z,100231.84
2023-02-28T23:03:57.056Z,100218.06
2023-02-28T23:06:35.553Z,100220.03
2023-02-28T23:09:06.782Z,100243.84
2023-02-28T23:11:36.899Z,100240.63
2023-02-28T23:14:04.785Z,100216.00
2023-02-28T23:16:36.917Z,100226.69
2023-02-28T23:19:06.900Z,100228.63
2023-02-28T23:21:34.703Z,100230.75
2023-02-28T23:24:03.111Z,100236.81
2023-02-28T23:26:33.406Z,100192.41
2023-02-28T23:29:01.272Z,100221.47
2023-02-28T23:31:28.336Z,100232.41
2023-02-28T23:33:56.601Z,100236.78
2023-02-28T23:36:24.141Z,100226.25
2023-02-28T23:38:52.670Z,100233.91
2023-02-28T23:41:21.167Z,100229.56
2023-02-28T23:43:49.006Z,100220.81
2023-02-28T23:46:16.428Z,100216.13
2023-02-28T23:48:43.494Z,100206.47
2023-02-28T23:51:16.818Z,100219.03
2023-02-28T23:53:47.291Z,100215.47
2023-02-28T23:56:18.183Z,100219.00
2023-02-28T23:58:45.903Z,100222.38
